sensor_id;sensor_type;location;lat;lon;timestamp;pressure;altitude;pressure_sealevel;temperature;humidity
15050;BME280;7622;42.724;23.250;2022-08-02T00:00:53;94484.28;;;19.52;100.00
15050;BME280;7622;42.724;23.250;2022-08-02T00:03:23;94568.25;;;20.08;100.00
15050;BME280;7622;42.724;23.250;2022-08-02T00:05:51;94565.22;;;20.04;100.00
15050;BME280;7622;42.724;23.250;2022-08-02T00:08:18;94563.78;;;20.08;100.00
15050;BME280;7622;42.724;23.250;2022-08-02T00:10:45;94556.47;;;20.03;100.00
15050;BME280;7622;42.724;23.250;2022-08-02T00:13:11;94562.16;;;19.87;100.00
15050;BME280;7622;42.724;23.250;2022-08-02T00:15:38;94557.50;;;20.09;100.00
15050;BME280;7622;42.724;23.250;2022-08-02T00:18:05;94554.06;;;19.95;100.00
15050;BME280;7622;42.724;23.250;2022-08-02T00:20:32;94556.50;;;19.97;100.00
15050;BME280;7622;42.724;23.250;2022-08-02T00:23:00;94555.06;;;19.94;100.00
15050;BME280;7622;42.724;23.250;2022-08-02T00:25:26;94554.88;;;19.96;100.00
15050;BME280;7622;42.724;23.250;2022-08-02T00:27:53;94557.28;;;20.11;100.00
15050;BME280;7622;42.724;23.250;2022-08-02T00:30:20;94560.75;;;19.91;100.00
15050;BME280;7622;42.724;23.250;2022-08-02T00:32:47;94561.75;;;19.77;100.00
15050;BME280;7622;42.724;23.250;2022-08-02T00:35:13;94556.69;;;19.56;100.00
15050;BME280;7622;42.724;23.250;2022-08-02T00:37:41;94552.53;;;19.34;100.00
15050;BME280;7622;42.724;23.250;2022-08-02T00:40:10;94557.19;;;19.32;100.00
15050;BME280;7622;42.724;23.250;2022-08-02T00:42:37;94553.56;;;19.33;100.00
15050;BME280;7622;42.724;23.250;2022-08-02T00:45:05;94554.31;;;19.13;100.00
15050;BME280;7622;42.724;23.250;2022-08-02T00:47:32;94552.31;;;19.22;100.00
15050;BME280;7622;42.724;23.250;2022-08-02T00:49:58;94543.19;;;19.24;100.00
15050;BME280;7622;42.724;23.250;2022-08-02T00:52:25;94545.00;;;19.24;100.00
15050;BME280;7622;42.724;23.250;2022-08-02T00:54:52;94539.13;;;19.15;100.00
15050;BME280;7622;42.724;23.250;2022-08-02T00:57:20;94544.81;;;19.19;100.00
15050;BME280;7622;42.724;23.250;2022-08-02T00:59:47;94545.41;;;19.08;100.00
15050;BME280;7622;42.724;23.250;2022-08-02T01:02:14;94547.06;;;19.22;100.00
15050;BME280;7622;42.724;23.250;2022-08-02T01:04:40;94546.66;;;19.32;100.00
15050;BME280;7622;42.724;23.250;2022-08-02T01:07:07;94545.78;;;19.05;100.00
15050;BME280;7622;42.724;23.250;2022-08-02T01:09:34;94552.03;;;18.97;100.00
15050;BME280;7622;42.724;23.250;2022-08-02T01:12:00;94488.00;;;18.42;100.00
15050;BME280;7622;42.724;23.250;2022-08-02T01:14:29;94546.47;;;18.72;100.00
15050;BME280;7622;42.724;23.250;2022-08-02T01:17:06;94547.22;;;18.60;100.00
15050;BME280;7622;42.724;23.250;2022-08-02T01:19:39;94543.59;;;18.33;100.00
15050;BME280;7622;42.724;23.250;2022-08-02T01:22:21;94553.81;;;18.15;100.00
15050;BME280;7622;42.724;23.250;2022-08-02T01:25:07;94543.97;;;17.95;100.00
15050;BME280;7622;42.724;23.250;2022-08-02T01:27:49;94547.78;;;17.93;100.00
15050;BME280;7622;42.724;23.250;2022-08-02T01:30:18;94547.22;;;17.69;100.00
15050;BME280;7622;42.724;23.250;2022-08-02T01:32:48;94549.06;;;17.76;100.00
15050;BME280;7622;42.724;23.250;2022-08-02T01:35:22;94552.31;;;17.78;100.00
15050;BME280;7622;42.724;23.250;2022-08-02T01:37:53;94554.38;;;17.82;100.00
15050;BME280;7622;42.724;23.250;2022-08-02T01:40:26;94550.84;;;17.96;100.00
15050;BME280;7622;42.724;23.250;2022-08-02T01:42:54;94532.63;;;17.95;100.00
15050;BME280;7622;42.724;23.250;2022-08-02T01:45:27;94550.81;;;17.90;100.00
15050;BME280;7622;42.724;23.250;2022-08-02T01:47:55;94550.75;;;17.83;100.00
15050;BME280;7622;42.724;23.250;2022-08-02T01:50:25;94555.81;;;17.63;100.00
15050;BME280;7622;42.724;23.250;2022-08-02T01:52:56;94548.25;;;17.32;100.00
15050;BME280;7622;42.724;23.250;2022-08-02T01:55:26;94545.69;;;17.39;100.00
15050;BME280;7622;42.724;23.250;2022-08-02T01:57:57;94549.94;;;17.40;100.00
15050;BME280;7622;42.724;23.250;2022-08-02T02:00:27;94344.69;;;16.02;100.00
15050;BME280;7622;42.724;23.250;2022-08-02T02:02:56;94549.13;;;17.40;100.00
15050;BME280;7622;42.724;23.250;2022-08-02T02:05:26;94535.56;;;17.15;100.00
15050;BME280;7622;42.724;23.250;2022-08-02T02:07:57;94554.53;;;17.17;100.00
15050;BME280;7622;42.724;23.250;2022-08-02T02:10:27;94552.63;;;17.25;100.00
15050;BME280;7622;42.724;23.250;2022-08-02T02:12:55;94549.31;;;17.38;100.00
15050;BME280;7622;42.724;23.250;2022-08-02T02:15:25;94559.44;;;17.20;100.00
15050;BME280;7622;42.724;23.250;2022-08-02T02:17:53;94557.66;;;17.06;100.00
15050;BME280;7622;42.724;23.250;2022-08-02T02:20:22;94545.84;;;17.16;100.00
15050;BME280;7622;42.724;23.250;2022-08-02T02:22:49;94543.13;;;16.88;100.00
15050;BME280;7622;42.724;23.250;2022-08-02T02:25:19;94556.03;;;17.05;100.00
15050;BME280;7622;42.724;23.250;2022-08-02T02:27:51;94551.28;;;16.93;100.00
15050;BME280;7622;42.724;23.250;2022-08-02T02:30:20;94542.34;;;17.09;100.00
15050;BME280;7622;42.724;23.250;2022-08-02T02:32:51;94547.84;;;16.93;100.00
15050;BME280;7622;42.724;23.250;2022-08-02T02:35:19;94559.50;;;16.90;100.00
15050;BME280;7622;42.724;23.250;2022-08-02T02:37:48;94542.94;;;16.90;100.00
15050;BME280;7622;42.724;23.250;2022-08-02T02:40:16;94534.50;;;16.73;100.00
15050;BME280;7622;42.724;23.250;2022-08-02T02:42:45;94542.94;;;16.90;100.00
15050;BME280;7622;42.724;23.250;2022-08-02T02:45:14;94531.72;;;16.96;100.00
15050;BME280;7622;42.724;23.250;2022-08-02T02:47:43;94538.47;;;17.05;100.00
15050;BME280;7622;42.724;23.250;2022-08-02T02:50:11;94539.66;;;17.03;100.00
15050;BME280;7622;42.724;23.250;2022-08-02T02:52:39;94545.66;;;16.97;100.00
15050;BME280;7622;42.724;23.250;2022-08-02T02:55:09;94553.03;;;16.86;100.00
15050;BME280;7622;42.724;23.250;2022-08-02T02:57:37;94550.41;;;16.72;100.00
15050;BME280;7622;42.724;23.250;2022-08-02T03:00:07;94551.59;;;16.69;100.00
15050;BME280;7622;42.724;23.250;2022-08-02T03:02:37;94549.75;;;16.84;100.00
15050;BME280;7622;42.724;23.250;2022-08-02T03:05:05;94554.63;;;16.87;100.00
15050;BME280;7622;42.724;23.250;2022-08-02T03:07:34;94555.91;;;16.91;100.00
15050;BME280;7622;42.724;23.250;2022-08-02T03:10:02;94562.47;;;17.02;100.00
15050;BME280;7622;42.724;23.250;2022-08-02T03:12:30;94546.53;;;17.04;100.00
15050;BME280;7622;42.724;23.250;2022-08-02T03:14:58;94556.41;;;17.02;100.00
15050;BME280;7622;42.724;23.250;2022-08-02T03:17:24;94555.28;;;17.11;100.00
15050;BME280;7622;42.724;23.250;2022-08-02T03:19:51;94553.38;;;17.19;100.00
15050;BME280;7622;42.724;23.250;2022-08-02T03:22:18;94548.19;;;17.26;100.00
15050;BME280;7622;42.724;23.250;2022-08-02T03:24:46;94553.19;;;17.21;100.00
15050;BME280;7622;42.724;23.250;2022-08-02T03:27:13;94551.31;;;17.15;100.00
15050;BME280;7622;42.724;23.250;2022-08-02T03:29:39;94558.69;;;17.26;100.00
15050;BME280;7622;42.724;23.250;2022-08-02T03:32:06;94556.44;;;17.44;100.00
15050;BME280;7622;42.724;23.250;2022-08-02T03:34:33;94560.94;;;17.50;100.00
15050;BME280;7622;42.724;23.250;2022-08-02T03:37:01;94558.53;;;17.70;100.00
15050;BME280;7622;42.724;23.250;2022-08-02T03:39:30;94555.09;;;17.69;100.00
15050;BME280;7622;42.724;23.250;2022-08-02T03:41:59;94557.03;;;17.61;100.00
15050;BME280;7622;42.724;23.250;2022-08-02T03:44:27;94559.63;;;17.82;100.00
15050;BME280;7622;42.724;23.250;2022-08-02T03:46:54;94562.75;;;17.92;100.00
15050;BME280;7622;42.724;23.250;2022-08-02T03:49:21;94566.75;;;18.16;100.00
15050;BME280;7622;42.724;23.250;2022-08-02T03:51:47;94566.41;;;18.26;100.00
15050;BME280;7622;42.724;23.250;2022-08-02T03:54:16;94574.63;;;18.44;100.00
15050;BME280;7622;42.724;23.250;2022-08-02T03:56:43;94575.00;;;18.41;100.00
15050;BME280;7622;42.724;23.250;2022-08-02T03:59:13;94581.00;;;18.28;100.00
15050;BME280;7622;42.724;23.250;2022-08-02T04:01:40;94579.81;;;19.06;100.00
15050;BME280;7622;42.724;23.250;2022-08-02T04:04:07;94586.13;;;19.18;100.00
15050;BME280;7622;42.724;23.250;2022-08-02T04:06:34;94585.84;;;19.48;100.00
15050;BME280;7622;42.724;23.250;2022-08-02T04:09:01;94589.81;;;19.31;100.00
15050;BME280;7622;42.724;23.250;2022-08-02T04:11:28;94590.03;;;19.36;100.00
15050;BME280;7622;42.724;23.250;2022-08-02T04:13:58;94596.09;;;19.29;100.00
15050;BME280;7622;42.724;23.250;2022-08-02T04:16:36;94594.16;;;19.71;100.00
15050;BME280;7622;42.724;23.250;2022-08-02T04:19:06;94605.97;;;20.15;100.00
15050;BME280;7622;42.724;23.250;2022-08-02T04:21:35;94599.91;;;20.34;100.00
15050;BME280;7622;42.724;23.250;2022-08-02T04:24:03;94604.72;;;20.63;100.00
15050;BME280;7622;42.724;23.250;2022-08-02T04:26:32;94605.97;;;20.54;100.00
15050;BME280;7622;42.724;23.250;2022-08-02T04:29:00;94599.41;;;20.76;100.00
15050;BME280;7622;42.724;23.250;2022-08-02T04:31:29;94602.25;;;20.75;100.00
15050;BME280;7622;42.724;23.250;2022-08-02T04:33:57;94600.28;;;21.28;100.00
15050;BME280;7622;42.724;23.250;2022-08-02T04:36:24;94601.09;;;21.67;97.23
15050;BME280;7622;42.724;23.250;2022-08-02T04:38:51;94600.19;;;21.79;95.80
15050;BME280;7622;42.724;23.250;2022-08-02T04:41:18;94597.34;;;21.49;97.25
15050;BME280;7622;42.724;23.250;2022-08-02T04:43:45;94578.47;;;21.39;98.46
15050;BME280;7622;42.724;23.250;2022-08-02T04:46:12;94602.66;;;22.12;94.17
15050;BME280;7622;42.724;23.250;2022-08-02T04:48:40;94589.41;;;22.12;92.74
15050;BME280;7622;42.724;23.250;2022-08-02T04:51:07;94601.84;;;22.12;92.70
15050;BME280;7622;42.724;23.250;2022-08-02T04:53:33;94603.03;;;22.34;90.49
15050;BME280;7622;42.724;23.250;2022-08-02T04:56:00;94605.31;;;22.55;90.93
15050;BME280;7622;42.724;23.250;2022-08-02T04:58:27;94606.31;;;22.79;87.91
15050;BME280;7622;42.724;23.250;2022-08-02T05:00:53;94605.47;;;23.51;81.97
15050;BME280;7622;42.724;23.250;2022-08-02T05:03:20;94604.84;;;23.56;80.20
15050;BME280;7622;42.724;23.250;2022-08-02T05:05:48;94606.59;;;23.26;86.38
15050;BME280;7622;42.724;23.250;2022-08-02T05:08:15;94600.38;;;23.68;83.76
15050;BME280;7622;42.724;23.250;2022-08-02T05:10:42;94607.88;;;24.13;79.92
15050;BME280;7622;42.724;23.250;2022-08-02T05:13:08;94609.78;;;24.24;77.70
15050;BME280;7622;42.724;23.250;2022-08-02T05:15:35;94614.53;;;24.80;75.05
15050;BME280;7622;42.724;23.250;2022-08-02T05:18:02;94614.34;;;25.33;70.55
15050;BME280;7622;42.724;23.250;2022-08-02T05:20:29;94616.88;;;25.80;67.14
15050;BME280;7622;42.724;23.250;2022-08-02T05:22:57;94622.81;;;26.15;64.59
15050;BME280;7622;42.724;23.250;2022-08-02T05:25:24;94620.69;;;26.62;61.90
15050;BME280;7622;42.724;23.250;2022-08-02T05:27:51;94616.31;;;26.73;61.45
15050;BME280;7622;42.724;23.250;2022-08-02T05:30:17;94624.63;;;26.77;60.71
15050;BME280;7622;42.724;23.250;2022-08-02T05:32:46;94612.50;;;26.86;60.51
15050;BME280;7622;42.724;23.250;2022-08-02T05:35:17;94625.41;;;27.32;58.97
15050;BME280;7622;42.724;23.250;2022-08-02T05:37:44;94620.84;;;27.71;56.98
15050;BME280;7622;42.724;23.250;2022-08-02T05:40:12;94612.41;;;27.36;56.82
15050;BME280;7622;42.724;23.250;2022-08-02T05:42:39;94627.56;;;26.75;59.30
15050;BME280;7622;42.724;23.250;2022-08-02T05:45:07;94610.59;;;26.64;60.71
15050;BME280;7622;42.724;23.250;2022-08-02T05:47:34;94623.44;;;27.23;58.56
15050;BME280;7622;42.724;23.250;2022-08-02T05:50:02;94596.38;;;26.59;62.00
15050;BME280;7622;42.724;23.250;2022-08-02T05:52:48;94623.03;;;26.92;60.53
15050;BME280;7622;42.724;23.250;2022-08-02T05:55:25;94620.31;;;26.54;60.80
15050;BME280;7622;42.724;23.250;2022-08-02T05:57:58;94623.41;;;26.84;59.48
15050;BME280;7622;42.724;23.250;2022-08-02T06:00:29;94631.28;;;27.51;56.42
15050;BME280;7622;42.724;23.250;2022-08-02T06:03:20;94630.03;;;27.37;52.80
15050;BME280;7622;42.724;23.250;2022-08-02T06:05:58;94634.53;;;27.15;51.08
15050;BME280;7622;42.724;23.250;2022-08-02T06:08:31;94638.75;;;27.32;50.49
15050;BME280;7622;42.724;23.250;2022-08-02T06:11:01;94629.16;;;26.76;52.32
15050;BME280;7622;42.724;23.250;2022-08-02T06:13:31;94641.44;;;27.11;53.04
15050;BME280;7622;42.724;23.250;2022-08-02T06:15:58;94588.50;;;27.02;50.11
15050;BME280;7622;42.724;23.250;2022-08-02T06:18:26;94646.16;;;27.47;50.56
15050;BME280;7622;42.724;23.250;2022-08-02T06:20:56;94650.56;;;27.36;50.99
15050;BME280;7622;42.724;23.250;2022-08-02T06:23:25;94636.59;;;27.51;50.38
15050;BME280;7622;42.724;23.250;2022-08-02T06:25:52;94630.25;;;27.14;49.81
15050;BME280;7622;42.724;23.250;2022-08-02T06:28:21;94650.75;;;27.30;49.59
15050;BME280;7622;42.724;23.250;2022-08-02T06:30:48;94638.13;;;27.25;49.26
15050;BME280;7622;42.724;23.250;2022-08-02T06:33:15;94642.03;;;27.56;47.91
15050;BME280;7622;42.724;23.250;2022-08-02T06:35:44;94653.91;;;27.65;49.22
15050;BME280;7622;42.724;23.250;2022-08-02T06:38:17;94668.22;;;27.59;50.15
15050;BME280;7622;42.724;23.250;2022-08-02T06:40:47;94666.75;;;28.17;47.79
15050;BME280;7622;42.724;23.250;2022-08-02T06:43:25;94658.44;;;27.92;47.86
15050;BME280;7622;42.724;23.250;2022-08-02T06:45:53;94662.09;;;28.07;47.55
15050;BME280;7622;42.724;23.250;2022-08-02T06:48:20;94667.56;;;28.17;47.45
15050;BME280;7622;42.724;23.250;2022-08-02T06:50:47;94664.72;;;28.29;47.07
15050;BME280;7622;42.724;23.250;2022-08-02T06:53:14;94656.63;;;28.51;46.80
15050;BME280;7622;42.724;23.250;2022-08-02T06:55:40;94657.44;;;28.51;47.31
15050;BME280;7622;42.724;23.250;2022-08-02T06:58:07;94656.34;;;28.47;47.60
15050;BME280;7622;42.724;23.250;2022-08-02T07:00:35;94649.97;;;28.53;47.86
15050;BME280;7622;42.724;23.250;2022-08-02T07:03:03;94659.25;;;28.41;47.64
15050;BME280;7622;42.724;23.250;2022-08-02T07:05:30;94655.06;;;28.82;46.91
15050;BME280;7622;42.724;23.250;2022-08-02T07:07:57;94655.88;;;29.24;46.12
15050;BME280;7622;42.724;23.250;2022-08-02T07:10:23;94659.81;;;29.17;46.17
15050;BME280;7622;42.724;23.250;2022-08-02T07:12:50;94652.03;;;29.57;45.51
15050;BME280;7622;42.724;23.250;2022-08-02T07:15:17;94659.97;;;29.37;45.99
15050;BME280;7622;42.724;23.250;2022-08-02T07:17:45;94652.38;;;29.81;45.31
15050;BME280;7622;42.724;23.250;2022-08-02T07:20:12;94645.69;;;29.79;44.45
15050;BME280;7622;42.724;23.250;2022-08-02T07:22:39;94662.44;;;30.26;43.93
15050;BME280;7622;42.724;23.250;2022-08-02T07:25:07;94660.28;;;30.18;44.26
15050;BME280;7622;42.724;23.250;2022-08-02T07:27:34;94654.13;;;30.33;43.56
15050;BME280;7622;42.724;23.250;2022-08-02T07:30:01;94654.13;;;30.28;43.09
15050;BME280;7622;42.724;23.250;2022-08-02T07:32:30;94649.19;;;29.89;44.03
15050;BME280;7622;42.724;23.250;2022-08-02T07:34:59;94648.19;;;30.10;43.20
15050;BME280;7622;42.724;23.250;2022-08-02T07:37:28;94651.13;;;29.99;42.88
15050;BME280;7622;42.724;23.250;2022-08-02T07:39:55;94632.66;;;30.07;42.29
15050;BME280;7622;42.724;23.250;2022-08-02T07:42:22;94649.59;;;30.28;42.85
15050;BME280;7622;42.724;23.250;2022-08-02T07:44:49;94648.19;;;30.10;42.56
15050;BME280;7622;42.724;23.250;2022-08-02T07:47:16;94646.63;;;30.25;42.92
15050;BME280;7622;42.724;23.250;2022-08-02T07:49:43;94643.94;;;30.25;43.29
15050;BME280;7622;42.724;23.250;2022-08-02T07:52:11;94645.03;;;30.49;42.32
15050;BME280;7622;42.724;23.250;2022-08-02T07:54:38;94649.09;;;30.82;42.04
15050;BME280;7622;42.724;23.250;2022-08-02T07:57:05;94637.78;;;30.39;42.17
15050;BME280;7622;42.724;23.250;2022-08-02T07:59:31;94652.03;;;30.90;41.19
15050;BME280;7622;42.724;23.250;2022-08-02T08:01:58;94650.06;;;31.42;40.85
15050;BME280;7622;42.724;23.250;2022-08-02T08:04:25;94649.78;;;31.48;40.98
15050;BME280;7622;42.724;23.250;2022-08-02T08:06:52;94643.16;;;31.25;40.48
15050;BME280;7622;42.724;23.250;2022-08-02T08:09:21;94639.28;;;31.57;39.97
15050;BME280;7622;42.724;23.250;2022-08-02T08:11:47;94651.72;;;32.02;38.77
15050;BME280;7622;42.724;23.250;2022-08-02T08:14:14;94646.84;;;31.45;39.40
15050;BME280;7622;42.724;23.250;2022-08-02T08:16:41;94643.53;;;31.68;39.93
15050;BME280;7622;42.724;23.250;2022-08-02T08:19:08;94642.00;;;31.42;39.67
15050;BME280;7622;42.724;23.250;2022-08-02T08:21:35;94649.84;;;31.28;40.23
15050;BME280;7622;42.724;23.250;2022-08-02T08:24:02;94650.88;;;31.42;40.11
15050;BME280;7622;42.724;23.250;2022-08-02T08:26:30;94645.53;;;31.37;39.79
15050;BME280;7622;42.724;23.250;2022-08-02T08:28:57;94638.97;;;31.74;39.43
15050;BME280;7622;42.724;23.250;2022-08-02T08:31:24;94642.63;;;31.93;39.00
15050;BME280;7622;42.724;23.250;2022-08-02T08:33:51;94636.19;;;31.89;38.83
15050;BME280;7622;42.724;23.250;2022-08-02T08:36:18;94639.44;;;31.86;39.09
15050;BME280;7622;42.724;23.250;2022-08-02T08:38:45;94636.25;;;32.67;38.03
15050;BME280;7622;42.724;23.250;2022-08-02T08:41:14;94637.03;;;32.33;38.10
15050;BME280;7622;42.724;23.250;2022-08-02T08:43:43;94620.53;;;32.06;38.94
15050;BME280;7622;42.724;23.250;2022-08-02T08:46:11;94640.25;;;32.35;38.31
15050;BME280;7622;42.724;23.250;2022-08-02T08:48:45;94608.69;;;32.46;38.20
15050;BME280;7622;42.724;23.250;2022-08-02T08:51:15;94633.47;;;32.82;37.72
15050;BME280;7622;42.724;23.250;2022-08-02T08:53:47;94638.13;;;33.29;36.76
15050;BME280;7622;42.724;23.250;2022-08-02T08:56:15;94635.84;;;33.65;36.48
15050;BME280;7622;42.724;23.250;2022-08-02T08:58:43;94637.06;;;33.96;36.01
15050;BME280;7622;42.724;23.250;2022-08-02T09:01:12;94626.94;;;33.17;36.54
15050;BME280;7622;42.724;23.250;2022-08-02T09:03:39;94633.72;;;31.97;37.95
15050;BME280;7622;42.724;23.250;2022-08-02T09:06:06;94640.09;;;31.62;38.87
15050;BME280;7622;42.724;23.250;2022-08-02T09:08:33;94623.84;;;31.18;40.12
15050;BME280;7622;42.724;23.250;2022-08-02T09:11:00;94622.47;;;31.21;39.80
15050;BME280;7622;42.724;23.250;2022-08-02T09:13:28;94631.03;;;31.97;37.93
15050;BME280;7622;42.724;23.250;2022-08-02T09:16:00;94623.75;;;32.08;37.89
15050;BME280;7622;42.724;23.250;2022-08-02T09:18:29;94636.06;;;32.09;37.99
15050;BME280;7622;42.724;23.250;2022-08-02T09:21:00;94575.19;;;31.89;37.71
15050;BME280;7622;42.724;23.250;2022-08-02T09:23:33;94634.25;;;32.49;37.63
15050;BME280;7622;42.724;23.250;2022-08-02T09:26:01;94624.50;;;32.53;37.63
15050;BME280;7622;42.724;23.250;2022-08-02T09:28:31;94620.69;;;32.64;37.59
15050;BME280;7622;42.724;23.250;2022-08-02T09:31:08;94618.81;;;32.93;37.38
15050;BME280;7622;42.724;23.250;2022-08-02T09:33:36;94610.78;;;32.88;37.63
15050;BME280;7622;42.724;23.250;2022-08-02T09:36:05;94611.34;;;33.61;36.62
15050;BME280;7622;42.724;23.250;2022-08-02T09:38:32;94605.72;;;32.03;37.98
15050;BME280;7622;42.724;23.250;2022-08-02T09:41:00;94598.44;;;32.14;38.01
15050;BME280;7622;42.724;23.250;2022-08-02T09:43:38;94610.31;;;32.03;38.15
15050;BME280;7622;42.724;23.250;2022-08-02T09:46:17;94623.47;;;31.45;38.85
15050;BME280;7622;42.724;23.250;2022-08-02T09:48:51;94615.44;;;31.35;39.35
15050;BME280;7622;42.724;23.250;2022-08-02T09:51:21;94611.25;;;30.78;39.86
15050;BME280;7622;42.724;23.250;2022-08-02T09:53:49;94605.13;;;31.73;39.12
15050;BME280;7622;42.724;23.250;2022-08-02T09:56:17;94597.72;;;32.42;38.28
15050;BME280;7622;42.724;23.250;2022-08-02T09:58:45;94595.56;;;32.39;38.48
15050;BME280;7622;42.724;23.250;2022-08-02T10:01:12;94603.41;;;31.92;38.38
15050;BME280;7622;42.724;23.250;2022-08-02T10:03:53;94602.97;;;32.19;38.45
15050;BME280;7622;42.724;23.250;2022-08-02T10:06:21;94607.72;;;32.66;37.28
15050;BME280;7622;42.724;23.250;2022-08-02T10:08:49;94598.53;;;32.38;38.11
15050;BME280;7622;42.724;23.250;2022-08-02T10:11:18;94585.84;;;32.04;38.52
15050;BME280;7622;42.724;23.250;2022-08-02T10:13:44;94600.06;;;31.61;39.27
15050;BME280;7622;42.724;23.250;2022-08-02T10:16:11;94601.31;;;31.79;39.23
15050;BME280;7622;42.724;23.250;2022-08-02T10:18:39;94592.28;;;32.47;38.20
15050;BME280;7622;42.724;23.250;2022-08-02T10:21:11;94585.25;;;33.09;38.01
15050;BME280;7622;42.724;23.250;2022-08-02T10:23:39;94593.34;;;33.09;37.65
15050;BME280;7622;42.724;23.250;2022-08-02T10:26:08;94590.06;;;33.12;37.50
15050;BME280;7622;42.724;23.250;2022-08-02T10:28:36;94588.50;;;33.06;37.35
15050;BME280;7622;42.724;23.250;2022-08-02T10:31:04;94584.69;;;32.55;38.42
15050;BME280;7622;42.724;23.250;2022-08-02T10:33:34;94587.34;;;32.60;37.49
15050;BME280;7622;42.724;23.250;2022-08-02T10:36:04;94594.28;;;32.71;37.39
15050;BME280;7622;42.724;23.250;2022-08-02T10:38:33;94586.63;;;32.15;38.11
15050;BME280;7622;42.724;23.250;2022-08-02T10:41:00;94589.69;;;31.93;38.52
15050;BME280;7622;42.724;23.250;2022-08-02T10:43:42;94598.88;;;31.18;39.89
15050;BME280;7622;42.724;23.250;2022-08-02T10:46:31;94583.59;;;31.78;39.49
15050;BME280;7622;42.724;23.250;2022-08-02T10:49:07;94588.16;;;31.08;41.30
15050;BME280;7622;42.724;23.250;2022-08-02T10:51:56;94581.72;;;30.88;40.84
15050;BME280;7622;42.724;23.250;2022-08-02T10:54:25;94583.13;;;31.55;40.87
15050;BME280;7622;42.724;23.250;2022-08-02T10:56:56;94586.03;;;32.18;39.77
15050;BME280;7622;42.724;23.250;2022-08-02T10:59:24;94574.31;;;32.43;39.32
15050;BME280;7622;42.724;23.250;2022-08-02T11:01:52;94566.50;;;32.41;38.25
15050;BME280;7622;42.724;23.250;2022-08-02T11:04:31;94579.53;;;32.24;38.75
15050;BME280;7622;42.724;23.250;2022-08-02T11:07:11;94585.78;;;32.54;38.66
15050;BME280;7622;42.724;23.250;2022-08-02T11:09:41;94589.00;;;31.67;38.91
15050;BME280;7622;42.724;23.250;2022-08-02T11:12:09;94578.16;;;32.32;38.44
15050;BME280;7622;42.724;23.250;2022-08-02T11:14:39;94583.31;;;32.91;37.80
15050;BME280;7622;42.724;23.250;2022-08-02T11:17:13;94578.19;;;33.42;36.53
15050;BME280;7622;42.724;23.250;2022-08-02T11:20:15;94585.19;;;34.23;35.56
15050;BME280;7622;42.724;23.250;2022-08-02T11:22:44;94583.50;;;33.71;36.10
15050;BME280;7622;42.724;23.250;2022-08-02T11:25:34;94578.47;;;33.83;36.01
15050;BME280;7622;42.724;23.250;2022-08-02T11:28:10;94550.13;;;32.67;36.16
15050;BME280;7622;42.724;23.250;2022-08-02T11:30:37;94578.22;;;31.78;37.30
15050;BME280;7622;42.724;23.250;2022-08-02T11:33:04;94579.19;;;32.65;36.89
15050;BME280;7622;42.724;23.250;2022-08-02T11:35:33;94552.72;;;32.82;36.76
15050;BME280;7622;42.724;23.250;2022-08-02T11:38:22;94571.78;;;32.18;37.97
15050;BME280;7622;42.724;23.250;2022-08-02T11:40:50;94581.50;;;31.64;38.88
15050;BME280;7622;42.724;23.250;2022-08-02T11:43:18;94587.59;;;31.16;39.47
15050;BME280;7622;42.724;23.250;2022-08-02T11:45:46;94578.00;;;30.69;40.37
15050;BME280;7622;42.724;23.250;2022-08-02T11:48:13;94580.47;;;31.50;39.23
15050;BME280;7622;42.724;23.250;2022-08-02T11:50:40;94571.34;;;31.51;39.15
15050;BME280;7622;42.724;23.250;2022-08-02T11:53:14;94575.75;;;31.86;39.13
15050;BME280;7622;42.724;23.250;2022-08-02T11:55:41;94581.09;;;31.27;39.38
15050;BME280;7622;42.724;23.250;2022-08-02T11:58:09;94569.97;;;30.59;40.25
15050;BME280;7622;42.724;23.250;2022-08-02T12:00:37;94548.50;;;30.59;39.89
15050;BME280;7622;42.724;23.250;2022-08-02T12:03:05;94520.13;;;30.07;40.71
15050;BME280;7622;42.724;23.250;2022-08-02T12:05:32;94567.19;;;29.88;41.52
15050;BME280;7622;42.724;23.250;2022-08-02T12:07:59;94557.59;;;29.92;41.86
15050;BME280;7622;42.724;23.250;2022-08-02T12:10:26;94571.00;;;30.23;42.35
15050;BME280;7622;42.724;23.250;2022-08-02T12:12:54;94565.09;;;30.36;42.44
15050;BME280;7622;42.724;23.250;2022-08-02T12:15:30;94568.34;;;30.73;41.16
15050;BME280;7622;42.724;23.250;2022-08-02T12:17:58;94569.88;;;31.05;40.67
15050;BME280;7622;42.724;23.250;2022-08-02T12:20:43;94567.47;;;30.98;40.73
15050;BME280;7622;42.724;23.250;2022-08-02T12:23:09;94580.06;;;31.23;40.31
15050;BME280;7622;42.724;23.250;2022-08-02T12:25:36;94578.81;;;30.75;40.81
15050;BME280;7622;42.724;23.250;2022-08-02T12:28:17;94557.81;;;29.75;43.65
15050;BME280;7622;42.724;23.250;2022-08-02T12:30:53;94563.72;;;29.72;43.73
15050;BME280;7622;42.724;23.250;2022-08-02T12:33:21;94566.59;;;29.56;43.70
15050;BME280;7622;42.724;23.250;2022-08-02T12:35:48;94570.13;;;29.66;43.31
15050;BME280;7622;42.724;23.250;2022-08-02T12:38:15;94564.56;;;29.93;42.54
15050;BME280;7622;42.724;23.250;2022-08-02T12:40:43;94564.59;;;30.29;42.85
15050;BME280;7622;42.724;23.250;2022-08-02T12:43:16;94567.53;;;30.27;43.21
15050;BME280;7622;42.724;23.250;2022-08-02T12:45:45;94566.47;;;30.64;42.14
15050;BME280;7622;42.724;23.250;2022-08-02T12:48:14;94565.59;;;30.99;41.00
15050;BME280;7622;42.724;23.250;2022-08-02T12:50:42;94555.31;;;31.31;39.89
15050;BME280;7622;42.724;23.250;2022-08-02T12:53:10;94565.72;;;31.48;40.22
15050;BME280;7622;42.724;23.250;2022-08-02T12:55:47;94557.94;;;31.46;41.13
15050;BME280;7622;42.724;23.250;2022-08-02T12:58:15;94552.84;;;31.40;41.06
15050;BME280;7622;42.724;23.250;2022-08-02T13:00:41;94529.72;;;30.74;42.16
15050;BME280;7622;42.724;23.250;2022-08-02T13:03:11;94555.97;;;30.82;42.30
15050;BME280;7622;42.724;23.250;2022-08-02T13:05:39;94549.03;;;30.76;42.24
15050;BME280;7622;42.724;23.250;2022-08-02T13:08:06;94554.66;;;30.24;42.56